Terminal Aerodrome Forecast
Issued by NWS Tampa Bay Area, FL

Home | Current Version | Previous Version | Text Only | Print | Product List | Glossary On
Versions: 1 2 3 4 5 6 7 8 9 10 11 12 13 14
000
FTUS42 KTBW 290521
TAFSRQ
TAF
KSRQ 290521Z 2906/3006 25006KT P6SM FEW250
     FM291000 27005KT P6SM FEW015 SCT250
     FM291400 31007KT P6SM SCT020 SCT250
     FM291700 27010KT P6SM SCT030 SCT250
     FM291900 29012KT P6SM FEW035 SCT250=

USA.gov is the U.S. government's official web portal to all federal, state and local government web resources and services.